createdAt,value
2022-10-18T00:08:06.903Z,74981.53
2022-10-18T00:18:09.147Z,74961.31
2022-10-18T00:28:11.158Z,74951.19
2022-10-18T00:38:16.379Z,74963.34
2022-10-18T00:48:19.533Z,74971.44
2022-10-18T00:58:24.780Z,74977.50
2022-10-18T01:08:35.242Z,74985.59
2022-10-18T01:18:52.130Z,74985.59
2022-10-18T01:29:15.802Z,74993.69
2022-10-18T01:39:29.667Z,75013.91
2022-10-18T01:49:33.522Z,75001.78
2022-10-18T01:59:47.257Z,75003.81
2022-10-18T02:10:00.274Z,75001.78
2022-10-18T02:20:05.794Z,75017.97
2022-10-18T02:30:10.514Z,75015.94
2022-10-18T02:40:12.711Z,74999.75
2022-10-18T02:50:16.609Z,75009.88
2022-10-18T03:00:18.801Z,75024.03
2022-10-18T03:10:23.849Z,75026.06
2022-10-18T03:20:29.150Z,75030.09
2022-10-18T03:30:32.632Z,75017.97
2022-10-18T03:40:36.984Z,75022.00
2022-10-18T03:50:41.419Z,75020.00
2022-10-18T04:00:54.739Z,75034.16
2022-10-18T04:11:01.604Z,75028.09
2022-10-18T04:21:03.666Z,75022.00
2022-10-18T04:31:08.263Z,75030.09
2022-10-18T04:41:12.297Z,75030.09
2022-10-18T04:51:14.307Z,75036.19
2022-10-18T05:01:19.182Z,75034.16
2022-10-18T05:11:25.919Z,75054.38
2022-10-18T05:21:33.296Z,75058.44
2022-10-18T05:31:38.301Z,75062.47
2022-10-18T05:41:42.819Z,75052.38
2022-10-18T05:51:47.076Z,75042.25
2022-10-18T06:01:53.574Z,75028.09
2022-10-18T06:12:01.008Z,74965.34
2022-10-18T06:22:05.442Z,74914.78
2022-10-18T06:32:10.576Z,74920.84
2022-10-18T06:42:19.179Z,74916.78
2022-10-18T06:52:25.888Z,74900.59
2022-10-18T07:02:28.366Z,74860.13
2022-10-18T07:12:31.662Z,74864.19
2022-10-18T07:22:34.569Z,74848.00
2022-10-18T07:32:41.087Z,74862.16
2022-10-18T07:42:45.695Z,74839.91
2022-10-18T07:52:48.151Z,74797.41
2022-10-18T08:02:50.202Z,74769.09
2022-10-18T08:12:54.770Z,74791.34
2022-10-18T08:23:00.091Z,74756.94
2022-10-18T08:33:04.585Z,74706.38
2022-10-18T08:43:26.867Z,74613.28
2022-10-18T08:53:43.758Z,74540.47
2022-10-18T09:04:15.150Z,74455.47
2022-10-18T09:14:23.630Z,74524.28
2022-10-18T09:24:36.417Z,74516.19
2022-10-18T09:34:55.473Z,74504.03
2022-10-18T09:45:16.846Z,74493.94
2022-10-18T09:55:26.960Z,74495.94
2022-10-18T10:05:35.347Z,74459.53
2022-10-18T10:15:40.520Z,74419.06
2022-10-18T10:25:56.184Z,74445.38
2022-10-18T10:36:03.383Z,74380.63
2022-10-18T10:46:19.899Z,74326.00
2022-10-18T10:56:29.395Z,74338.16
2022-10-18T11:06:45.323Z,74303.75
2022-10-18T11:17:21.195Z,74328.03
2022-10-18T11:27:38.712Z,74366.47
2022-10-18T11:38:05.933Z,74342.19
2022-10-18T11:48:48.142Z,74348.25
2022-10-18T11:58:58.442Z,74285.53
2022-10-18T12:09:24.494Z,74277.44
2022-10-18T12:19:33.182Z,74237.00
2022-10-18T12:29:50.215Z,74212.72
2022-10-18T12:40:09.747Z,74212.72
2022-10-18T12:50:57.798Z,74208.66
2022-10-18T13:01:02.470Z,74237.00
2022-10-18T13:11:09.172Z,74241.03
2022-10-18T13:21:44.749Z,74245.09
2022-10-18T13:32:02.057Z,74232.94
2022-10-18T13:42:04.433Z,74241.03
2022-10-18T13:52:28.254Z,74241.03
2022-10-18T14:03:12.868Z,74249.13
2022-10-18T14:13:38.448Z,74263.28
2022-10-18T14:23:44.791Z,74285.53
2022-10-18T14:33:58.002Z,74297.69
2022-10-18T14:44:35.768Z,74334.09
2022-10-18T14:54:40.385Z,74394.78
2022-10-18T15:04:44.974Z,74408.94
2022-10-18T15:14:52.494Z,74467.63
2022-10-18T15:25:33.929Z,74568.78
2022-10-18T15:35:38.912Z,74645.66
2022-10-18T15:56:03.047Z,74817.66
2022-10-18T16:06:12.277Z,74876.31
2022-10-18T16:16:27.202Z,74939.06
2022-10-18T16:26:32.368Z,74924.88
2022-10-18T16:36:39.941Z,74930.97
2022-10-18T16:46:52.426Z,74945.13
2022-10-18T16:56:59.060Z,74973.44
2022-10-18T17:07:04.931Z,74965.34
2022-10-18T17:17:07.118Z,74981.53
2022-10-18T17:27:10.606Z,74995.72
2022-10-18T17:37:13.867Z,75036.19
2022-10-18T17:47:15.896Z,75009.88
2022-10-18T17:57:40.904Z,75086.75
2022-10-18T18:07:56.123Z,75111.03
2022-10-18T18:17:58.499Z,75088.78
2022-10-18T18:28:06.595Z,75080.69
2022-10-18T18:38:09.588Z,75058.44
2022-10-18T18:48:19.089Z,75086.75
2022-10-18T18:58:27.830Z,75115.09
2022-10-18T19:08:29.810Z,75131.28
2022-10-18T19:18:36.016Z,75119.13
2022-10-18T19:28:41.007Z,75123.19
2022-10-18T19:38:45.495Z,75135.31
2022-10-18T19:48:54.258Z,75121.16
2022-10-18T19:59:04.282Z,75115.09
2022-10-18T20:09:17.685Z,75107.00
2022-10-18T20:19:22.598Z,75076.66
2022-10-18T20:29:27.009Z,75078.66
2022-10-18T20:39:31.401Z,75066.53
2022-10-18T20:49:33.423Z,75080.69
2022-10-18T20:59:35.996Z,75096.88
2022-10-18T21:09:38.108Z,75076.66
2022-10-18T21:19:40.184Z,75088.78
2022-10-18T21:29:42.339Z,75086.75
2022-10-18T21:39:47.850Z,75078.66
2022-10-18T21:49:49.831Z,75090.81
2022-10-18T21:59:56.619Z,75086.75
2022-10-18T22:09:59.633Z,75092.84
2022-10-18T22:20:01.768Z,75094.84
2022-10-18T22:30:03.980Z,75078.66
2022-10-18T22:40:06.708Z,75086.75
2022-10-18T22:50:09.330Z,75096.88
2022-10-18T23:00:18.593Z,75094.84
2022-10-18T23:10:23.005Z,75102.94
2022-10-18T23:20:30.601Z,75119.13
2022-10-18T23:30:37.109Z,75111.03
2022-10-18T23:40:46.597Z,75135.31
2022-10-18T23:50:48.693Z,75145.44
